createdAt,value
2023-03-17T00:00:29.055Z,0.00
2023-03-17T00:01:28.751Z,0.00
2023-03-17T00:02:28.755Z,0.00
2023-03-17T00:03:28.882Z,0.00
2023-03-17T00:04:28.799Z,0.00
2023-03-17T00:05:28.700Z,0.00
2023-03-17T00:06:28.699Z,0.00
2023-03-17T00:07:28.680Z,0.00
2023-03-17T00:08:28.663Z,0.00
2023-03-17T00:09:28.741Z,0.00
2023-03-17T00:10:29.040Z,0.00
2023-03-17T00:11:28.646Z,0.00
2023-03-17T00:12:28.641Z,0.00
2023-03-17T00:13:28.671Z,0.00
2023-03-17T00:14:28.629Z,0.00
2023-03-17T00:15:28.619Z,0.00
2023-03-17T00:16:28.598Z,0.00
2023-03-17T00:17:28.580Z,0.00
2023-03-17T00:18:28.581Z,0.00
2023-03-17T00:19:28.636Z,0.00
2023-03-17T00:20:28.875Z,0.00
2023-03-17T00:21:28.546Z,0.00
2023-03-17T00:22:28.544Z,0.00
2023-03-17T00:23:28.540Z,0.00
2023-03-17T00:24:28.625Z,0.00
2023-03-17T00:25:28.501Z,0.00
2023-03-17T00:26:28.551Z,0.00
2023-03-17T00:27:28.504Z,0.00
2023-03-17T00:28:28.494Z,0.00
2023-03-17T00:29:28.474Z,0.00
2023-03-17T00:30:29.134Z,0.00
2023-03-17T00:31:28.517Z,0.00
2023-03-17T00:32:28.488Z,0.00
2023-03-17T00:33:28.453Z,0.00
2023-03-17T00:34:28.416Z,0.00
2023-03-17T00:35:28.442Z,0.00
2023-03-17T00:36:28.433Z,0.00
2023-03-17T00:37:28.402Z,0.00
2023-03-17T00:38:28.387Z,0.00
2023-03-17T00:39:28.367Z,0.00
2023-03-17T00:40:28.638Z,0.00
2023-03-17T00:41:28.343Z,0.00
2023-03-17T00:42:28.378Z,0.00
2023-03-17T00:43:30.587Z,0.00
2023-03-17T00:44:28.320Z,0.00
2023-03-17T00:45:28.312Z,0.00
2023-03-17T00:46:28.328Z,0.00
2023-03-17T00:47:28.355Z,0.00
2023-03-17T00:48:28.272Z,0.00
2023-03-17T00:49:28.277Z,0.00
2023-03-17T00:50:28.606Z,0.00
2023-03-17T00:51:28.255Z,0.00
2023-03-17T00:52:28.262Z,0.00
2023-03-17T00:53:28.228Z,0.00
2023-03-17T00:54:28.210Z,0.00
2023-03-17T00:55:28.239Z,0.00
2023-03-17T00:56:28.221Z,0.00
2023-03-17T00:57:28.185Z,0.00
2023-03-17T00:58:28.178Z,0.00
2023-03-17T00:59:28.183Z,0.00
2023-03-17T01:00:28.471Z,0.00
2023-03-17T01:01:28.149Z,0.00
2023-03-17T01:02:28.250Z,0.00
2023-03-17T01:03:28.115Z,0.00
2023-03-17T01:04:28.106Z,0.00
2023-03-17T01:05:29.114Z,0.00
2023-03-17T01:06:28.088Z,0.00
2023-03-17T01:07:28.081Z,0.00
2023-03-17T01:08:28.091Z,0.00
2023-03-17T01:09:28.138Z,0.00
2023-03-17T01:10:28.379Z,0.00
2023-03-17T01:11:28.079Z,0.00
2023-03-17T01:12:28.035Z,0.00
2023-03-17T01:13:28.012Z,0.00
2023-03-17T01:14:28.042Z,0.00
2023-03-17T01:15:28.017Z,0.00
2023-03-17T01:16:28.033Z,0.00
2023-03-17T01:17:27.975Z,0.00
2023-03-17T01:18:29.019Z,0.00
2023-03-17T01:19:27.955Z,0.00
2023-03-17T01:20:28.447Z,0.00
2023-03-17T01:21:27.947Z,0.00
2023-03-17T01:22:27.927Z,0.00
2023-03-17T01:23:27.941Z,0.00
2023-03-17T01:24:27.922Z,0.00
2023-03-17T01:25:27.910Z,0.00
2023-03-17T01:26:27.919Z,0.00
2023-03-17T01:27:27.885Z,0.00
2023-03-17T01:28:27.906Z,0.00
2023-03-17T01:29:27.866Z,0.00
2023-03-17T01:30:28.246Z,0.00
2023-03-17T01:31:27.869Z,0.00
2023-03-17T01:32:27.875Z,0.00
2023-03-17T01:33:27.881Z,0.00
2023-03-17T01:34:27.825Z,0.00
2023-03-17T01:35:27.808Z,0.00
2023-03-17T01:36:27.804Z,0.00
2023-03-17T01:37:27.836Z,0.00
2023-03-17T01:38:27.775Z,0.00
2023-03-17T01:39:27.781Z,0.00
2023-03-17T01:40:28.305Z,0.00
2023-03-17T01:41:27.749Z,0.00
2023-03-17T01:42:27.764Z,0.00
2023-03-17T01:43:27.760Z,0.00
2023-03-17T01:44:27.726Z,0.00
2023-03-17T01:45:27.796Z,0.00
2023-03-17T01:46:31.586Z,0.00
2023-03-17T01:47:59.602Z,0.00
2023-03-17T01:48:27.701Z,0.00
2023-03-17T01:49:27.672Z,0.00
2023-03-17T01:50:27.830Z,0.00
2023-03-17T01:51:27.717Z,0.00
2023-03-17T01:52:27.710Z,0.00
2023-03-17T01:53:27.633Z,0.00
2023-03-17T01:54:28.624Z,0.00
2023-03-17T01:55:27.606Z,0.00
2023-03-17T01:56:27.616Z,0.00
2023-03-17T01:57:27.614Z,0.00
2023-03-17T01:58:27.631Z,0.00
2023-03-17T01:59:27.608Z,0.00
2023-03-17T02:00:27.603Z,0.00
2023-03-17T02:01:27.610Z,0.00
2023-03-17T02:02:27.542Z,0.00
2023-03-17T02:03:27.540Z,0.00
2023-03-17T02:04:27.621Z,0.00
2023-03-17T02:05:27.524Z,0.00
2023-03-17T02:06:27.507Z,0.00
2023-03-17T02:07:27.540Z,0.00
2023-03-17T02:08:27.515Z,0.00
2023-03-17T02:09:27.480Z,0.00
2023-03-17T02:10:27.532Z,0.00
2023-03-17T02:11:27.453Z,0.00
2023-03-17T02:12:27.460Z,0.00
2023-03-17T02:13:27.501Z,0.00
2023-03-17T02:14:27.433Z,0.00
2023-03-17T02:15:27.408Z,0.00
2023-03-17T02:16:27.443Z,0.00
2023-03-17T02:17:27.411Z,0.00
2023-03-17T02:18:27.402Z,0.00
2023-03-17T02:19:27.375Z,0.00
2023-03-17T02:20:27.511Z,0.00
2023-03-17T02:21:27.368Z,0.00
2023-03-17T02:22:27.354Z,0.00
2023-03-17T02:23:27.360Z,0.00
2023-03-17T02:24:27.381Z,0.00
2023-03-17T02:25:27.326Z,0.00
2023-03-17T02:26:27.317Z,0.00
2023-03-17T02:27:27.301Z,0.00
2023-03-17T02:28:27.302Z,0.00
2023-03-17T02:29:27.290Z,0.00
2023-03-17T02:30:27.322Z,0.00
2023-03-17T02:31:27.298Z,0.00
2023-03-17T02:32:27.302Z,0.00
2023-03-17T02:33:27.241Z,0.00
2023-03-17T02:34:27.236Z,0.00
2023-03-17T02:35:27.225Z,0.00
2023-03-17T02:36:27.291Z,0.00
2023-03-17T02:37:27.216Z,0.00
2023-03-17T02:38:27.188Z,0.00
2023-03-17T02:39:27.169Z,0.00
2023-03-17T02:40:27.196Z,0.00
2023-03-17T02:41:27.161Z,0.00
2023-03-17T02:42:27.153Z,0.00
2023-03-17T02:43:27.139Z,0.00
2023-03-17T02:44:27.184Z,0.00
2023-03-17T02:45:27.177Z,0.00
2023-03-17T02:46:27.149Z,0.00
2023-03-17T02:47:28.105Z,0.00
2023-03-17T02:48:27.140Z,0.00
2023-03-17T02:49:27.087Z,0.00
2023-03-17T02:50:27.540Z,0.00
2023-03-17T02:51:27.096Z,0.00
2023-03-17T02:52:27.065Z,0.00
2023-03-17T02:53:27.065Z,0.00
2023-03-17T02:54:27.033Z,0.00
2023-03-17T02:55:27.027Z,0.00
2023-03-17T02:56:27.032Z,0.00
2023-03-17T02:57:27.101Z,0.00
2023-03-17T02:58:27.008Z,0.00
2023-03-17T02:59:27.014Z,0.00
2023-03-17T03:00:27.048Z,0.00
2023-03-17T03:01:27.119Z,0.00
2023-03-17T03:02:27.116Z,0.00
2023-03-17T03:03:26.946Z,0.00
2023-03-17T03:04:26.931Z,0.00
2023-03-17T03:05:26.951Z,0.00
2023-03-17T03:06:26.924Z,0.00
2023-03-17T03:07:26.919Z,0.00
2023-03-17T03:08:26.957Z,0.00
2023-03-17T03:09:26.902Z,0.00
2023-03-17T03:10:26.890Z,0.00
2023-03-17T03:11:26.876Z,0.00
2023-03-17T03:12:26.895Z,0.00
2023-03-17T03:13:26.858Z,0.00
2023-03-17T03:14:26.880Z,0.00
2023-03-17T03:15:26.826Z,0.00
2023-03-17T03:16:26.813Z,0.00
2023-03-17T03:17:26.838Z,0.00
2023-03-17T03:18:26.831Z,0.00
2023-03-17T03:19:26.794Z,0.00
2023-03-17T03:20:26.773Z,0.00
2023-03-17T03:21:26.815Z,0.00
2023-03-17T03:22:26.751Z,0.00
2023-03-17T03:23:26.768Z,0.00
2023-03-17T03:24:26.737Z,0.00
2023-03-17T03:25:26.740Z,0.00
2023-03-17T03:26:26.718Z,0.00
2023-03-17T03:27:26.724Z,0.00
2023-03-17T03:28:26.723Z,0.00
2023-03-17T03:29:26.687Z,0.00
2023-03-17T03:30:26.678Z,0.00
2023-03-17T03:31:26.752Z,0.00
2023-03-17T03:32:26.717Z,0.00
2023-03-17T03:33:26.640Z,0.00
2023-03-17T03:34:26.637Z,0.00
2023-03-17T03:35:26.635Z,0.00
2023-03-17T03:36:26.614Z,0.00
2023-03-17T03:37:26.609Z,0.00
2023-03-17T03:38:26.606Z,0.00
2023-03-17T03:39:26.629Z,0.00
2023-03-17T03:40:26.567Z,0.00
2023-03-17T03:41:27.569Z,0.00
2023-03-17T03:42:26.572Z,0.00
2023-03-17T03:43:26.551Z,0.00
2023-03-17T03:44:26.598Z,0.00
2023-03-17T03:45:26.533Z,0.00
2023-03-17T03:46:26.636Z,0.00
2023-03-17T03:47:26.510Z,0.00
2023-03-17T03:48:26.509Z,0.00
2023-03-17T03:49:26.489Z,0.00
2023-03-17T03:50:26.503Z,0.00
2023-03-17T03:51:26.476Z,0.00
2023-03-17T03:52:26.461Z,0.00
2023-03-17T03:53:26.449Z,0.00
2023-03-17T03:54:26.441Z,0.00
2023-03-17T03:55:26.452Z,0.00
2023-03-17T03:56:26.429Z,0.00
2023-03-17T03:57:26.428Z,0.00
2023-03-17T03:58:26.405Z,0.00
2023-03-17T03:59:26.417Z,0.00
2023-03-17T04:00:26.402Z,0.00
2023-03-17T04:01:26.381Z,0.00
2023-03-17T04:02:26.434Z,0.00
2023-03-17T04:03:26.353Z,0.00
2023-03-17T04:04:26.370Z,0.00
2023-03-17T04:05:26.348Z,0.00
2023-03-17T04:06:26.328Z,0.00
2023-03-17T04:07:26.425Z,0.00
2023-03-17T04:08:26.302Z,0.00
2023-03-17T04:09:26.304Z,0.00
2023-03-17T04:10:26.290Z,0.00
2023-03-17T04:11:26.285Z,0.00
2023-03-17T04:12:26.266Z,0.00
2023-03-17T04:13:26.279Z,0.00
2023-03-17T04:14:26.248Z,0.00
2023-03-17T04:15:26.238Z,0.00
2023-03-17T04:16:26.294Z,0.00
2023-03-17T04:17:26.235Z,0.00
2023-03-17T04:18:27.215Z,0.00
2023-03-17T04:19:26.224Z,0.00
2023-03-17T04:20:26.189Z,0.00
2023-03-17T04:21:26.197Z,0.00
2023-03-17T04:22:26.175Z,0.00
2023-03-17T04:23:26.165Z,0.00
2023-03-17T04:24:26.177Z,0.00
2023-03-17T04:25:26.141Z,0.00
2023-03-17T04:26:26.152Z,0.00
2023-03-17T04:27:26.127Z,0.00
2023-03-17T04:28:26.111Z,0.00
2023-03-17T04:29:26.102Z,0.00
2023-03-17T04:30:26.101Z,0.00
2023-03-17T04:31:26.143Z,0.00
2023-03-17T04:32:27.279Z,0.00
2023-03-17T04:33:27.069Z,0.00
2023-03-17T04:34:26.059Z,0.00
2023-03-17T04:35:26.039Z,0.00
2023-03-17T04:36:26.033Z,0.00
2023-03-17T04:37:26.047Z,0.00
2023-03-17T04:38:26.022Z,0.00
2023-03-17T04:39:26.009Z,0.00
2023-03-17T04:40:26.017Z,0.00
2023-03-17T04:41:25.982Z,0.00
2023-03-17T04:42:25.993Z,0.00
2023-03-17T04:43:25.968Z,0.00
2023-03-17T04:44:25.958Z,0.00
2023-03-17T04:45:26.017Z,0.00
2023-03-17T04:46:25.937Z,0.00
2023-03-17T04:47:25.956Z,0.00
2023-03-17T04:48:25.906Z,0.00
2023-03-17T04:49:25.912Z,0.00
2023-03-17T04:50:25.896Z,0.00
2023-03-17T04:51:25.927Z,0.00
2023-03-17T04:52:25.870Z,0.00
2023-03-17T04:53:25.870Z,0.00
2023-03-17T04:54:25.846Z,0.00
2023-03-17T04:55:25.858Z,0.00
2023-03-17T04:56:25.865Z,0.00
2023-03-17T04:57:25.832Z,0.00
2023-03-17T04:58:30.713Z,0.00
2023-03-17T04:59:26.811Z,0.00
2023-03-17T05:00:25.795Z,0.00
2023-03-17T05:01:25.791Z,0.00
2023-03-17T05:02:25.831Z,0.00
2023-03-17T05:03:27.559Z,0.00
2023-03-17T05:04:31.704Z,0.00
2023-03-17T05:05:27.793Z,0.00
2023-03-17T05:06:25.758Z,0.00
2023-03-17T05:07:25.725Z,0.00
2023-03-17T05:08:25.760Z,0.00
2023-03-17T05:09:25.724Z,0.00
2023-03-17T05:10:25.717Z,0.00
2023-03-17T05:11:25.692Z,0.00
2023-03-17T05:12:25.678Z,0.00
2023-03-17T05:13:25.664Z,0.00
2023-03-17T05:14:25.687Z,0.00
2023-03-17T05:15:25.664Z,0.00
2023-03-17T05:16:25.709Z,0.00
2023-03-17T05:17:25.636Z,5.62
2023-03-17T05:18:25.628Z,5.62
2023-03-17T05:19:25.675Z,5.62
2023-03-17T05:20:25.606Z,5.62
2023-03-17T05:21:25.639Z,5.62
2023-03-17T05:22:26.629Z,5.62
2023-03-17T05:23:25.583Z,11.25
2023-03-17T05:24:25.572Z,11.25
2023-03-17T05:25:25.548Z,11.25
2023-03-17T05:26:25.551Z,11.25
2023-03-17T05:27:25.561Z,11.25
2023-03-17T05:28:25.542Z,16.88
2023-03-17T05:29:25.527Z,16.88
2023-03-17T05:30:25.507Z,16.88
2023-03-17T05:31:25.599Z,22.50
2023-03-17T05:32:25.779Z,22.50
2023-03-17T05:33:25.488Z,28.12
2023-03-17T05:34:25.469Z,33.75
2023-03-17T05:35:25.464Z,39.38
2023-03-17T05:36:25.434Z,39.38
2023-03-17T05:37:25.454Z,45.00
2023-03-17T05:38:25.433Z,50.62
2023-03-17T05:39:25.403Z,56.25
2023-03-17T05:40:25.411Z,61.88
2023-03-17T05:41:25.412Z,67.50
2023-03-17T05:42:25.375Z,73.12
2023-03-17T05:43:25.375Z,78.75
2023-03-17T05:44:25.360Z,90.00
2023-03-17T05:45:25.376Z,101.25
2023-03-17T05:46:25.420Z,112.50
2023-03-17T05:47:25.331Z,129.38
2023-03-17T05:48:25.326Z,135.00
2023-03-17T05:49:25.327Z,146.25
2023-03-17T05:50:25.324Z,157.50
2023-03-17T05:51:25.288Z,163.12
2023-03-17T05:52:25.281Z,168.75
2023-03-17T05:53:25.280Z,180.00
2023-03-17T05:54:25.260Z,196.88
2023-03-17T05:55:25.257Z,196.88
2023-03-17T05:56:25.264Z,208.12
2023-03-17T05:57:25.227Z,208.12
2023-03-17T05:58:25.224Z,219.38
2023-03-17T05:59:25.220Z,230.62
2023-03-17T06:00:25.204Z,241.88
2023-03-17T06:01:25.213Z,258.75
2023-03-17T06:02:25.201Z,292.50
2023-03-17T06:03:25.204Z,326.25
2023-03-17T06:04:25.162Z,427.50
2023-03-17T06:05:25.165Z,804.38
2023-03-17T06:06:25.163Z,1113.75
2023-03-17T06:07:25.138Z,1119.38
2023-03-17T06:08:25.122Z,1209.38
2023-03-17T06:09:25.117Z,1321.88
2023-03-17T06:10:25.132Z,1293.75
2023-03-17T06:11:25.083Z,1327.50
2023-03-17T06:12:25.085Z,1372.50
2023-03-17T06:13:25.092Z,1288.12
2023-03-17T06:14:27.064Z,1265.62
2023-03-17T06:15:26.105Z,1231.88
2023-03-17T06:16:25.061Z,1260.00
2023-03-17T06:17:25.036Z,1215.00
2023-03-17T06:18:25.039Z,1096.88
2023-03-17T06:19:25.024Z,1063.12
2023-03-17T06:20:24.989Z,1006.88
2023-03-17T06:21:25.030Z,1080.00
2023-03-17T06:22:24.983Z,1344.38
2023-03-17T06:23:24.968Z,1299.38
2023-03-17T06:24:25.008Z,1254.38
2023-03-17T06:25:24.959Z,1316.25
2023-03-17T06:26:24.957Z,1428.75
2023-03-17T06:27:24.922Z,1445.62
2023-03-17T06:28:24.922Z,1299.38
2023-03-17T06:29:24.913Z,1119.38
2023-03-17T06:30:24.928Z,888.75
2023-03-17T06:31:25.047Z,1102.50
2023-03-17T06:32:24.919Z,1181.25
2023-03-17T06:33:24.875Z,1158.75
2023-03-17T06:34:24.855Z,1125.00
2023-03-17T06:35:24.892Z,1119.38
2023-03-17T06:36:24.866Z,1068.75
2023-03-17T06:37:24.826Z,973.12
2023-03-17T06:38:24.842Z,860.62
2023-03-17T06:39:24.839Z,765.00
2023-03-17T06:40:24.811Z,770.62
2023-03-17T06:41:24.793Z,787.50
2023-03-17T06:42:24.782Z,804.38
2023-03-17T06:43:24.944Z,787.50
2023-03-17T06:44:24.771Z,855.00
2023-03-17T06:45:24.753Z,1029.38
2023-03-17T06:46:24.775Z,1276.88
2023-03-17T06:47:26.024Z,1518.75
2023-03-17T06:48:25.747Z,1653.75
2023-03-17T06:49:24.757Z,1642.50
2023-03-17T06:50:24.702Z,1473.75
2023-03-17T06:51:24.682Z,1839.38
2023-03-17T06:52:24.681Z,1636.88
2023-03-17T06:53:24.689Z,1625.62
2023-03-17T06:54:24.650Z,1563.75
2023-03-17T06:55:24.691Z,1479.38
2023-03-17T06:56:30.216Z,1147.50
2023-03-17T06:57:25.638Z,1170.00
2023-03-17T06:58:24.616Z,1164.38
2023-03-17T06:59:24.626Z,1186.88
2023-03-17T07:00:24.608Z,1153.12
2023-03-17T07:01:24.677Z,1040.62
2023-03-17T07:02:24.576Z,821.25
2023-03-17T07:03:24.573Z,663.75
2023-03-17T07:04:24.651Z,832.50
2023-03-17T07:05:24.549Z,1096.88
2023-03-17T07:06:24.532Z,1006.88
2023-03-17T07:07:24.542Z,748.12
2023-03-17T07:08:24.522Z,635.62
2023-03-17T07:09:24.499Z,624.38
2023-03-17T07:10:24.518Z,691.88
2023-03-17T07:11:24.507Z,770.62
2023-03-17T07:12:24.503Z,798.75
2023-03-17T07:13:24.480Z,731.25
2023-03-17T07:14:24.508Z,708.75
2023-03-17T07:15:24.499Z,697.50
2023-03-17T07:16:24.450Z,781.88
2023-03-17T07:17:24.437Z,770.62
2023-03-17T07:18:24.420Z,765.00
2023-03-17T07:19:24.426Z,776.25
2023-03-17T07:20:24.420Z,770.62
2023-03-17T07:21:24.401Z,708.75
2023-03-17T07:22:24.449Z,793.12
2023-03-17T07:23:24.378Z,888.75
2023-03-17T07:24:25.367Z,967.50
2023-03-17T07:25:24.392Z,1001.25
2023-03-17T07:26:24.365Z,1271.25
2023-03-17T07:27:24.324Z,1288.12
2023-03-17T07:28:24.328Z,1479.38
2023-03-17T07:29:24.309Z,1940.62
2023-03-17T07:30:24.287Z,2103.75
2023-03-17T07:31:24.454Z,2115.00
2023-03-17T07:32:24.296Z,2323.12
2023-03-17T07:33:24.305Z,2396.25
2023-03-17T07:34:24.283Z,2458.12
2023-03-17T07:35:24.278Z,2514.38
2023-03-17T07:36:24.266Z,2598.75
2023-03-17T07:37:24.266Z,2497.50
2023-03-17T07:38:24.249Z,2345.62
2023-03-17T07:39:24.193Z,2103.75
2023-03-17T07:40:24.193Z,2148.75
2023-03-17T07:41:24.182Z,2261.25
2023-03-17T07:42:24.212Z,2356.88
2023-03-17T07:43:24.155Z,2233.12
2023-03-17T07:44:24.142Z,2266.88
2023-03-17T07:45:24.158Z,2340.00
2023-03-17T07:46:24.198Z,2328.75
2023-03-17T07:47:56.059Z,2092.50
2023-03-17T07:48:24.147Z,2227.50
2023-03-17T07:49:38.398Z,2227.50
2023-03-17T07:50:26.090Z,2250.00
2023-03-17T07:51:24.077Z,2064.38
2023-03-17T07:52:24.060Z,1603.12
2023-03-17T07:53:24.083Z,1366.88
2023-03-17T07:54:24.106Z,1305.00
2023-03-17T07:55:24.040Z,1288.12
2023-03-17T07:56:24.068Z,1276.88
2023-03-17T07:57:24.047Z,1271.25
2023-03-17T07:58:24.146Z,1276.88
2023-03-17T07:59:24.012Z,1293.75
2023-03-17T08:00:23.979Z,1316.25
2023-03-17T08:01:23.995Z,1361.25
2023-03-17T08:02:24.130Z,1366.88
2023-03-17T08:03:24.024Z,1361.25
2023-03-17T08:04:23.985Z,1338.75
2023-03-17T08:05:23.940Z,1316.25
2023-03-17T08:06:23.953Z,1316.25
2023-03-17T08:07:23.908Z,1316.25
2023-03-17T08:08:23.904Z,1288.12
2023-03-17T08:09:23.914Z,1344.38
2023-03-17T08:10:23.889Z,1389.38
2023-03-17T08:11:23.905Z,1434.38
2023-03-17T08:12:23.882Z,1552.50
2023-03-17T08:13:23.874Z,1653.75
2023-03-17T08:14:23.873Z,1912.50
2023-03-17T08:15:23.854Z,2250.00
2023-03-17T08:16:23.902Z,2593.12
2023-03-17T08:17:23.877Z,2458.12
2023-03-17T08:18:23.823Z,2553.75
2023-03-17T08:19:23.800Z,2227.50
2023-03-17T08:20:23.789Z,1636.88
2023-03-17T08:21:23.832Z,1895.62
2023-03-17T08:22:23.808Z,1670.62
2023-03-17T08:23:23.787Z,1642.50
2023-03-17T08:24:23.809Z,1755.00
2023-03-17T08:25:23.772Z,1777.50
2023-03-17T08:26:23.733Z,1726.88
2023-03-17T08:27:23.724Z,1631.25
2023-03-17T08:28:23.730Z,1603.12
2023-03-17T08:29:23.780Z,1704.38
2023-03-17T08:30:23.754Z,1738.12
2023-03-17T08:31:23.770Z,1513.12
2023-03-17T08:32:23.741Z,1440.00
2023-03-17T08:33:23.705Z,1524.38
2023-03-17T08:34:23.661Z,1648.12
2023-03-17T08:35:23.677Z,1608.75
2023-03-17T08:36:23.700Z,1569.38
2023-03-17T08:37:23.636Z,1501.88
2023-03-17T08:38:23.636Z,1597.50
2023-03-17T08:39:23.621Z,1406.25
2023-03-17T08:40:23.595Z,1361.25
2023-03-17T08:41:23.618Z,1355.62
2023-03-17T08:42:23.602Z,1575.00
2023-03-17T08:43:23.567Z,1631.25
2023-03-17T08:44:23.560Z,1642.50
2023-03-17T08:45:23.548Z,1479.38
2023-03-17T08:46:23.697Z,1220.62
2023-03-17T08:47:23.530Z,1361.25
2023-03-17T08:48:23.558Z,1243.12
2023-03-17T08:49:23.548Z,1451.25
2023-03-17T08:50:23.506Z,1597.50
2023-03-17T08:51:24.561Z,1704.38
2023-03-17T08:52:24.550Z,1704.38
2023-03-17T08:53:23.489Z,1816.88
2023-03-17T08:54:23.490Z,1878.75
2023-03-17T08:55:23.722Z,1794.38
2023-03-17T08:56:23.444Z,1777.50
2023-03-17T08:57:23.434Z,1811.25
2023-03-17T08:58:23.420Z,2002.50
2023-03-17T08:59:23.442Z,1996.88
2023-03-17T09:00:23.416Z,1788.75
2023-03-17T09:01:23.410Z,2002.50
2023-03-17T09:02:23.390Z,1839.38
2023-03-17T09:03:23.373Z,2075.62
2023-03-17T09:04:23.426Z,2227.50
2023-03-17T09:05:23.361Z,2401.88
2023-03-17T09:06:23.389Z,2486.25
2023-03-17T09:07:23.331Z,2677.50
2023-03-17T09:08:23.321Z,2632.50
2023-03-17T09:09:23.340Z,2418.75
2023-03-17T09:10:23.311Z,2238.75
2023-03-17T09:11:23.289Z,1963.12
2023-03-17T09:12:23.288Z,1873.12
2023-03-17T09:13:23.269Z,1670.62
2023-03-17T09:14:23.267Z,1440.00
2023-03-17T09:15:23.298Z,1490.62
2023-03-17T09:16:23.355Z,1496.25
2023-03-17T09:17:23.239Z,1445.62
2023-03-17T09:18:23.219Z,1282.50
2023-03-17T09:19:23.204Z,1209.38
2023-03-17T09:20:23.261Z,1068.75
2023-03-17T09:21:23.199Z,1018.12
2023-03-17T09:22:23.201Z,1006.88
2023-03-17T09:23:23.163Z,990.00
2023-03-17T09:24:23.206Z,967.50
2023-03-17T09:25:23.162Z,956.25
2023-03-17T09:26:23.180Z,950.62
2023-03-17T09:27:23.129Z,950.62
2023-03-17T09:28:23.166Z,933.75
2023-03-17T09:29:23.113Z,871.88
2023-03-17T09:30:23.103Z,900.00
2023-03-17T09:31:23.141Z,939.38
2023-03-17T09:32:23.088Z,877.50
2023-03-17T09:33:23.134Z,866.25
2023-03-17T09:34:23.066Z,871.88
2023-03-17T09:35:23.059Z,877.50
2023-03-17T09:36:23.034Z,883.12
2023-03-17T09:37:23.035Z,866.25
2023-03-17T09:38:23.035Z,798.75
2023-03-17T09:39:23.082Z,821.25
2023-03-17T09:40:23.002Z,855.00
2023-03-17T09:41:22.985Z,793.12
2023-03-17T09:42:22.995Z,781.88
2023-03-17T09:43:22.988Z,748.12
2023-03-17T09:44:22.970Z,798.75
2023-03-17T09:45:22.991Z,810.00
2023-03-17T09:46:23.014Z,781.88
2023-03-17T09:47:22.923Z,815.62
2023-03-17T09:48:22.919Z,843.75
2023-03-17T09:49:22.939Z,888.75
2023-03-17T09:50:22.912Z,860.62
2023-03-17T09:51:22.915Z,855.00
2023-03-17T09:52:22.872Z,798.75
2023-03-17T09:53:22.855Z,838.12
2023-03-17T09:54:22.860Z,860.62
2023-03-17T09:55:22.835Z,826.88
2023-03-17T09:56:22.896Z,815.62
2023-03-17T09:57:22.818Z,838.12
2023-03-17T09:58:22.826Z,815.62
2023-03-17T09:59:22.791Z,815.62
2023-03-17T10:00:22.804Z,832.50
2023-03-17T10:01:22.840Z,787.50
2023-03-17T10:02:22.856Z,826.88
2023-03-17T10:03:22.765Z,815.62
2023-03-17T10:04:22.764Z,815.62
2023-03-17T10:05:22.753Z,849.38
2023-03-17T10:06:22.737Z,804.38
2023-03-17T10:07:22.748Z,821.25
2023-03-17T10:08:31.078Z,855.00
2023-03-17T10:09:26.543Z,849.38
2023-03-17T10:10:22.712Z,826.88
2023-03-17T10:11:22.716Z,770.62
2023-03-17T10:12:22.681Z,776.25
2023-03-17T10:13:22.701Z,793.12
2023-03-17T10:14:22.656Z,776.25
2023-03-17T10:15:22.659Z,765.00
2023-03-17T10:16:22.680Z,753.75
2023-03-17T10:17:22.723Z,759.38
2023-03-17T10:18:22.650Z,759.38
2023-03-17T10:19:22.608Z,770.62
2023-03-17T10:20:22.601Z,736.88
2023-03-17T10:21:22.581Z,776.25
2023-03-17T10:22:22.584Z,731.25
2023-03-17T10:23:22.615Z,753.75
2023-03-17T10:24:23.555Z,725.62
2023-03-17T10:25:22.548Z,725.62
2023-03-17T10:26:22.545Z,736.88
2023-03-17T10:27:22.528Z,725.62
2023-03-17T10:28:22.519Z,720.00
2023-03-17T10:29:22.635Z,736.88
2023-03-17T10:30:22.561Z,753.75
2023-03-17T10:31:23.542Z,731.25
2023-03-17T10:32:22.797Z,675.00
2023-03-17T10:33:22.465Z,736.88
2023-03-17T10:34:22.491Z,821.25
2023-03-17T10:35:22.493Z,765.00
2023-03-17T10:36:22.449Z,793.12
2023-03-17T10:37:22.444Z,748.12
2023-03-17T10:38:22.448Z,753.75
2023-03-17T10:39:22.406Z,714.38
2023-03-17T10:40:22.425Z,748.12
2023-03-17T10:41:22.393Z,753.75
2023-03-17T10:42:22.383Z,770.62
2023-03-17T10:43:22.411Z,770.62
2023-03-17T10:44:22.380Z,748.12
2023-03-17T10:45:22.369Z,776.25
2023-03-17T10:46:22.472Z,787.50
2023-03-17T10:47:22.334Z,776.25
2023-03-17T10:48:22.359Z,810.00
2023-03-17T10:49:22.327Z,781.88
2023-03-17T10:50:22.295Z,793.12
2023-03-17T10:51:22.312Z,781.88
2023-03-17T10:52:22.282Z,770.62
2023-03-17T10:53:22.334Z,759.38
2023-03-17T10:54:22.268Z,765.00
2023-03-17T10:55:22.249Z,765.00
2023-03-17T10:56:22.237Z,787.50
2023-03-17T10:57:22.234Z,776.25
2023-03-17T10:58:22.239Z,770.62
2023-03-17T10:59:22.219Z,753.75
2023-03-17T11:00:22.202Z,714.38
2023-03-17T11:01:22.273Z,720.00
2023-03-17T11:02:22.205Z,703.12
2023-03-17T11:03:22.276Z,691.88
2023-03-17T11:04:22.248Z,697.50
2023-03-17T11:05:22.181Z,691.88
2023-03-17T11:06:22.139Z,680.62
2023-03-17T11:07:22.132Z,680.62
2023-03-17T11:08:22.189Z,669.38
2023-03-17T11:09:22.125Z,669.38
2023-03-17T11:10:22.151Z,669.38
2023-03-17T11:11:22.491Z,663.75
2023-03-17T11:12:22.075Z,669.38
2023-03-17T11:13:22.074Z,669.38
2023-03-17T11:14:22.105Z,675.00
2023-03-17T11:15:22.051Z,680.62
2023-03-17T11:16:22.152Z,686.25
2023-03-17T11:17:22.039Z,686.25
2023-03-17T11:18:22.023Z,680.62
2023-03-17T11:19:22.112Z,680.62
2023-03-17T11:20:21.998Z,675.00
2023-03-17T11:21:21.989Z,686.25
2023-03-17T11:22:21.976Z,680.62
2023-03-17T11:23:22.008Z,686.25
2023-03-17T11:24:21.974Z,686.25
2023-03-17T11:25:21.980Z,691.88
2023-03-17T11:26:21.943Z,697.50
2023-03-17T11:27:21.929Z,708.75
2023-03-17T11:28:21.923Z,708.75
2023-03-17T11:29:21.915Z,708.75
2023-03-17T11:30:21.946Z,708.75
2023-03-17T11:31:21.901Z,725.62
2023-03-17T11:32:21.865Z,725.62
2023-03-17T11:33:21.946Z,725.62
2023-03-17T11:34:21.891Z,725.62
2023-03-17T11:35:21.873Z,731.25
2023-03-17T11:36:21.836Z,725.62
2023-03-17T11:37:21.830Z,731.25
2023-03-17T11:38:21.862Z,725.62
2023-03-17T11:39:21.803Z,720.00
2023-03-17T11:40:21.806Z,720.00
2023-03-17T11:41:21.804Z,720.00
2023-03-17T11:42:21.794Z,725.62
2023-03-17T11:43:21.768Z,731.25
2023-03-17T11:44:21.773Z,731.25
2023-03-17T11:45:21.764Z,725.62
2023-03-17T11:46:21.901Z,725.62
2023-03-17T11:47:21.745Z,725.62
2023-03-17T11:48:21.718Z,714.38
2023-03-17T11:49:21.790Z,725.62
2023-03-17T11:50:21.705Z,731.25
2023-03-17T11:51:21.692Z,725.62
2023-03-17T11:52:21.676Z,725.62
2023-03-17T11:53:21.705Z,725.62
2023-03-17T11:54:21.677Z,714.38
2023-03-17T11:55:21.680Z,703.12
2023-03-17T11:56:21.637Z,703.12
2023-03-17T11:57:21.625Z,697.50
2023-03-17T11:58:21.638Z,691.88
2023-03-17T11:59:21.642Z,675.00
2023-03-17T12:00:21.592Z,691.88
2023-03-17T12:01:21.610Z,697.50
2023-03-17T12:02:21.577Z,691.88
2023-03-17T12:03:21.692Z,686.25
2023-03-17T12:04:21.617Z,697.50
2023-03-17T12:05:21.547Z,703.12
2023-03-17T12:06:21.545Z,708.75
2023-03-17T12:07:21.526Z,703.12
2023-03-17T12:08:21.542Z,703.12
2023-03-17T12:09:21.523Z,697.50
2023-03-17T12:10:21.499Z,691.88
2023-03-17T12:11:21.498Z,691.88
2023-03-17T12:12:21.475Z,691.88
2023-03-17T12:13:21.574Z,686.25
2023-03-17T12:14:21.456Z,686.25
2023-03-17T12:15:21.573Z,675.00
2023-03-17T12:16:21.439Z,669.38
2023-03-17T12:17:21.428Z,669.38
2023-03-17T12:18:21.425Z,669.38
2023-03-17T12:19:21.527Z,658.12
2023-03-17T12:20:21.408Z,646.88
2023-03-17T12:21:21.390Z,646.88
2023-03-17T12:22:21.379Z,641.25
2023-03-17T12:23:21.363Z,641.25
2023-03-17T12:24:21.352Z,635.62
2023-03-17T12:25:21.375Z,635.62
2023-03-17T12:26:21.337Z,630.00
2023-03-17T12:27:21.321Z,630.00
2023-03-17T12:28:21.309Z,624.38
2023-03-17T12:29:21.299Z,624.38
2023-03-17T12:30:21.349Z,613.12
2023-03-17T12:31:21.325Z,607.50
2023-03-17T12:32:21.285Z,601.88
2023-03-17T12:33:21.301Z,596.25
2023-03-17T12:34:21.249Z,596.25
2023-03-17T12:35:21.225Z,596.25
2023-03-17T12:36:21.240Z,590.62
2023-03-17T12:37:21.261Z,585.00
2023-03-17T12:38:21.238Z,579.38
2023-03-17T12:39:21.220Z,573.75
2023-03-17T12:40:21.200Z,568.12
2023-03-17T12:41:21.203Z,562.50
2023-03-17T12:42:21.191Z,556.88
2023-03-17T12:43:21.187Z,551.25
2023-03-17T12:44:21.187Z,545.62